createdAt,value
2022-07-25T00:01:51.432Z,22.30
2022-07-25T00:04:18.839Z,22.30
2022-07-25T00:06:46.675Z,22.30
2022-07-25T00:09:13.811Z,22.30
2022-07-25T00:11:40.830Z,22.30
2022-07-25T00:14:08.185Z,22.20
2022-07-25T00:16:35.598Z,22.20
2022-07-25T00:19:02.657Z,22.20
2022-07-25T00:21:29.775Z,22.20
2022-07-25T00:23:56.822Z,22.20
2022-07-25T00:26:23.827Z,22.20
2022-07-25T00:28:50.754Z,22.20
2022-07-25T00:31:22.743Z,22.20
2022-07-25T00:33:49.696Z,22.20
2022-07-25T00:36:16.617Z,22.20
2022-07-25T00:38:43.532Z,22.20
2022-07-25T00:41:10.725Z,22.10
2022-07-25T00:43:38.237Z,22.10
2022-07-25T00:46:05.449Z,22.10
2022-07-25T00:48:32.434Z,22.00
2022-07-25T00:51:20.433Z,22.00
2022-07-25T00:53:47.632Z,21.90
2022-07-25T00:56:16.923Z,21.90
2022-07-25T00:58:45.520Z,21.90
2022-07-25T01:01:50.442Z,21.80
2022-07-25T01:04:17.750Z,21.80
2022-07-25T01:06:44.790Z,21.70
2022-07-25T01:09:13.260Z,21.70
2022-07-25T01:11:40.443Z,21.60
2022-07-25T01:14:08.007Z,21.50
2022-07-25T01:16:35.392Z,21.50
2022-07-25T01:19:02.353Z,21.50
2022-07-25T01:21:30.024Z,21.40
2022-07-25T01:23:57.025Z,21.30
2022-07-25T01:26:24.197Z,21.30
2022-07-25T01:28:51.088Z,21.30
2022-07-25T01:31:18.327Z,21.30
2022-07-25T01:33:45.288Z,21.20
2022-07-25T01:36:12.527Z,21.20
2022-07-25T01:38:39.937Z,21.10
2022-07-25T01:41:08.088Z,21.10
2022-07-25T01:43:35.120Z,21.00
2022-07-25T01:46:02.257Z,21.00
2022-07-25T01:48:29.478Z,21.00
2022-07-25T01:50:56.677Z,20.90
2022-07-25T01:53:24.176Z,20.90
2022-07-25T01:55:52.585Z,20.90
2022-07-25T01:58:21.551Z,20.90
2022-07-25T02:00:49.189Z,20.90
2022-07-25T02:03:31.000Z,20.90
2022-07-25T02:06:03.676Z,20.80
2022-07-25T02:08:31.323Z,20.80
2022-07-25T02:10:59.072Z,20.80
2022-07-25T02:13:26.253Z,20.80
2022-07-25T02:15:53.601Z,20.80
2022-07-25T02:18:20.530Z,20.80
2022-07-25T02:20:48.588Z,20.80
2022-07-25T02:23:15.544Z,20.80
2022-07-25T02:25:44.051Z,20.90
2022-07-25T02:28:10.994Z,20.90
2022-07-25T02:30:38.939Z,20.90
2022-07-25T02:33:05.917Z,20.80
2022-07-25T02:35:32.965Z,20.80
2022-07-25T02:37:59.954Z,20.70
2022-07-25T02:40:27.058Z,20.60
2022-07-25T02:42:54.229Z,20.60
2022-07-25T02:45:21.169Z,20.50
2022-07-25T02:47:48.198Z,20.50
2022-07-25T02:50:20.546Z,20.40
2022-07-25T02:52:47.442Z,20.40
2022-07-25T02:55:14.419Z,20.40
2022-07-25T02:57:41.309Z,20.30
2022-07-25T03:00:09.594Z,20.30
2022-07-25T03:02:36.539Z,20.20
2022-07-25T03:05:10.930Z,20.20
2022-07-25T03:07:38.736Z,20.30
2022-07-25T03:10:11.425Z,20.30
2022-07-25T03:12:39.374Z,20.30
2022-07-25T03:15:08.017Z,20.30
2022-07-25T03:17:35.178Z,20.30
2022-07-25T03:20:04.286Z,20.30
2022-07-25T03:22:31.247Z,20.30
2022-07-25T03:24:58.157Z,20.30
2022-07-25T03:27:25.166Z,20.30
2022-07-25T03:29:54.514Z,20.40
2022-07-25T03:32:21.721Z,20.30
2022-07-25T03:34:48.617Z,20.40
2022-07-25T03:37:15.567Z,20.40
2022-07-25T03:40:22.403Z,20.40
2022-07-25T03:42:49.320Z,20.30
2022-07-25T03:45:17.811Z,20.30
2022-07-25T03:47:44.928Z,20.30
2022-07-25T03:50:12.499Z,20.30
2022-07-25T03:52:39.544Z,20.40
2022-07-25T03:55:08.523Z,20.40
2022-07-25T03:57:35.549Z,20.40
2022-07-25T04:00:06.068Z,20.40
2022-07-25T04:02:33.390Z,20.50
2022-07-25T04:05:00.351Z,20.50
2022-07-25T04:07:27.384Z,20.50
2022-07-25T04:09:55.435Z,20.50
2022-07-25T04:12:22.335Z,20.50
2022-07-25T04:14:49.208Z,20.60
2022-07-25T04:17:17.237Z,20.50
2022-07-25T04:19:44.298Z,20.50
2022-07-25T04:22:12.104Z,20.50
2022-07-25T04:24:39.027Z,20.60
2022-07-25T04:27:05.991Z,20.50
2022-07-25T04:29:37.221Z,20.50
2022-07-25T04:32:04.679Z,20.40
2022-07-25T04:34:31.820Z,20.30
2022-07-25T04:36:58.706Z,20.20
2022-07-25T04:39:26.725Z,20.20
2022-07-25T04:41:53.606Z,20.10
2022-07-25T04:44:20.615Z,20.00
2022-07-25T04:46:47.506Z,20.00
2022-07-25T04:49:14.483Z,19.90
2022-07-25T04:51:41.719Z,19.80
2022-07-25T04:54:09.678Z,19.80
2022-07-25T04:56:37.370Z,19.80
2022-07-25T04:59:06.532Z,19.90
2022-07-25T05:01:34.868Z,19.90
2022-07-25T05:04:02.266Z,20.00
2022-07-25T05:06:29.323Z,20.00
2022-07-25T05:08:56.187Z,20.00
2022-07-25T05:11:48.652Z,20.10
2022-07-25T05:14:17.647Z,20.00
2022-07-25T05:16:48.115Z,19.90
2022-07-25T05:19:15.324Z,19.90
2022-07-25T05:21:42.637Z,19.90
2022-07-25T05:24:09.813Z,19.90
2022-07-25T05:26:37.101Z,19.80
2022-07-25T05:29:04.308Z,19.80
2022-07-25T05:31:31.361Z,19.80
2022-07-25T05:33:58.286Z,19.90
2022-07-25T05:36:26.035Z,19.90
2022-07-25T05:38:53.154Z,20.00
2022-07-25T05:41:58.789Z,20.00
2022-07-25T05:44:25.653Z,20.10
2022-07-25T05:46:52.655Z,20.20
2022-07-25T05:49:19.688Z,20.20
2022-07-25T05:51:46.665Z,20.30
2022-07-25T05:54:13.591Z,20.30
2022-07-25T05:56:40.534Z,20.50
2022-07-25T05:59:07.430Z,20.60
2022-07-25T06:01:34.439Z,20.80
2022-07-25T06:04:01.518Z,20.90
2022-07-25T06:06:30.650Z,21.00
2022-07-25T06:08:57.593Z,21.10
2022-07-25T06:11:30.649Z,21.00
2022-07-25T06:13:58.293Z,20.90
2022-07-25T06:16:25.335Z,20.90
2022-07-25T06:18:52.335Z,21.00
2022-07-25T06:21:24.412Z,21.20
2022-07-25T06:23:51.363Z,21.30
2022-07-25T06:26:18.532Z,21.50
2022-07-25T06:28:47.155Z,21.60
2022-07-25T06:31:14.240Z,21.60
2022-07-25T06:33:41.244Z,21.60
2022-07-25T06:36:08.389Z,21.70
2022-07-25T06:38:35.328Z,21.90
2022-07-25T06:41:02.845Z,21.90
2022-07-25T06:43:29.920Z,22.10
2022-07-25T06:45:56.911Z,22.20
2022-07-25T06:48:26.483Z,22.30
2022-07-25T06:50:53.603Z,22.40
2022-07-25T06:53:20.525Z,22.60
2022-07-25T06:55:47.539Z,22.70
2022-07-25T06:58:14.520Z,22.80
2022-07-25T07:00:52.302Z,22.90
2022-07-25T07:03:19.328Z,22.90
2022-07-25T07:05:46.313Z,22.90
2022-07-25T07:08:13.307Z,22.90
2022-07-25T07:10:40.688Z,23.00
2022-07-25T07:13:11.186Z,23.00
2022-07-25T07:15:43.889Z,23.00
2022-07-25T07:18:10.955Z,23.00
2022-07-25T07:20:39.126Z,23.00
2022-07-25T07:23:06.093Z,22.80
2022-07-25T07:25:33.693Z,22.80
2022-07-25T07:28:00.698Z,22.80
2022-07-25T07:33:41.201Z,22.90
2022-07-25T07:36:08.505Z,23.00
2022-07-25T07:38:35.460Z,23.10
2022-07-25T07:41:04.769Z,23.20
2022-07-25T07:43:31.960Z,23.40
2022-07-25T07:46:01.097Z,23.50
2022-07-25T07:48:32.297Z,23.50
2022-07-25T07:51:01.088Z,23.50
2022-07-25T07:53:47.073Z,23.50
2022-07-25T07:56:15.077Z,23.50
2022-07-25T07:58:42.170Z,23.50
2022-07-25T08:01:10.144Z,23.60
2022-07-25T08:03:37.398Z,23.60
2022-07-25T08:06:05.242Z,23.50
2022-07-25T08:08:32.201Z,23.50
2022-07-25T08:10:59.876Z,23.50
2022-07-25T08:13:33.958Z,23.60
2022-07-25T08:16:03.399Z,23.60
2022-07-25T08:18:34.920Z,23.60
2022-07-25T08:21:06.169Z,23.50
2022-07-25T08:23:38.975Z,23.40
2022-07-25T08:26:06.549Z,23.30
2022-07-25T08:28:36.583Z,23.20
2022-07-25T08:31:08.949Z,23.30
2022-07-25T08:33:36.220Z,23.30
2022-07-25T08:36:04.053Z,23.30
2022-07-25T08:38:31.156Z,23.30
2022-07-25T08:40:59.742Z,23.40
2022-07-25T08:43:27.250Z,23.60
2022-07-25T08:45:55.434Z,23.80
2022-07-25T08:48:24.667Z,23.90
2022-07-25T08:50:52.950Z,23.90
2022-07-25T08:53:36.634Z,23.90
2022-07-25T08:56:12.191Z,23.80
2022-07-25T08:58:44.150Z,23.60
2022-07-25T09:01:13.484Z,23.50
2022-07-25T09:03:41.685Z,23.40
2022-07-25T09:06:22.137Z,23.40
2022-07-25T09:09:08.566Z,23.40
2022-07-25T09:11:37.785Z,23.40
2022-07-25T09:14:09.259Z,23.60
2022-07-25T09:16:40.404Z,23.60
2022-07-25T09:19:12.667Z,23.50
2022-07-25T09:21:41.119Z,23.40
2022-07-25T09:24:18.905Z,23.20
2022-07-25T09:26:49.926Z,23.10
2022-07-25T09:29:17.905Z,23.00
2022-07-25T09:31:46.117Z,23.00
2022-07-25T09:34:16.260Z,23.10
2022-07-25T09:36:55.968Z,23.20
2022-07-25T09:39:54.307Z,23.20
2022-07-25T09:42:32.620Z,23.20
2022-07-25T09:45:04.823Z,23.20
2022-07-25T09:47:33.887Z,23.20
2022-07-25T09:50:04.238Z,23.30
2022-07-25T09:52:31.766Z,23.60
2022-07-25T09:54:58.711Z,23.80
2022-07-25T09:57:26.026Z,24.00
2022-07-25T09:59:54.005Z,24.20
2022-07-25T10:02:32.938Z,24.30
2022-07-25T10:05:31.254Z,24.30
2022-07-25T10:07:58.604Z,24.10
2022-07-25T10:10:31.857Z,24.10
2022-07-25T10:13:15.132Z,24.20
2022-07-25T10:15:49.437Z,24.30
2022-07-25T10:18:19.875Z,24.50
2022-07-25T10:20:49.977Z,24.50
2022-07-25T10:23:25.834Z,24.60
2022-07-25T10:26:14.025Z,25.10
2022-07-25T10:28:48.683Z,25.50
2022-07-25T10:31:22.097Z,25.80
2022-07-25T10:33:52.402Z,26.20
2022-07-25T10:36:20.297Z,26.40
2022-07-25T10:38:47.722Z,26.40
2022-07-25T10:41:16.513Z,26.20
2022-07-25T10:43:48.703Z,26.00
2022-07-25T10:46:20.569Z,25.80
2022-07-25T10:49:02.384Z,25.50
2022-07-25T10:52:00.069Z,25.40
2022-07-25T10:54:32.149Z,25.40
2022-07-25T10:57:00.124Z,25.60
2022-07-25T10:59:37.445Z,25.80
2022-07-25T11:02:07.286Z,26.20
2022-07-25T11:04:35.162Z,26.60
2022-07-25T11:07:17.866Z,26.90
2022-07-25T11:10:05.810Z,27.20
2022-07-25T11:12:33.508Z,27.50
2022-07-25T11:15:02.888Z,27.80
2022-07-25T11:17:30.236Z,27.90
2022-07-25T11:20:07.198Z,27.70
2022-07-25T11:22:35.412Z,27.60
2022-07-25T11:25:09.737Z,27.60
2022-07-25T11:27:36.646Z,27.40
2022-07-25T11:30:14.944Z,27.10
2022-07-25T11:32:46.259Z,27.00
2022-07-25T11:35:14.909Z,27.10
2022-07-25T11:37:44.626Z,27.10
2022-07-25T11:40:16.384Z,26.90
2022-07-25T11:42:49.321Z,26.70
2022-07-25T11:45:24.520Z,26.40
2022-07-25T11:48:05.903Z,25.70
2022-07-25T11:50:37.694Z,24.60
2022-07-25T11:53:07.589Z,23.70
2022-07-25T11:55:40.261Z,23.10
2022-07-25T11:58:08.256Z,22.70
2022-07-25T12:00:43.996Z,22.60
2022-07-25T12:03:19.010Z,22.60
2022-07-25T12:05:47.547Z,22.80
2022-07-25T12:08:23.181Z,23.30
2022-07-25T12:10:52.373Z,23.80
2022-07-25T12:13:26.440Z,24.30
2022-07-25T12:15:55.745Z,24.60
2022-07-25T12:18:22.793Z,24.70
2022-07-25T12:21:28.720Z,24.70
2022-07-25T12:23:55.678Z,24.40
2022-07-25T12:26:22.767Z,24.30
2022-07-25T12:28:49.646Z,24.10
2022-07-25T12:31:57.563Z,24.10
2022-07-25T12:34:24.552Z,24.20
2022-07-25T12:36:53.033Z,24.30
2022-07-25T12:42:28.926Z,24.00
2022-07-25T12:44:56.542Z,23.70
2022-07-25T12:47:24.715Z,23.40
2022-07-25T12:50:44.528Z,23.10
2022-07-25T12:53:13.504Z,22.80
2022-07-25T12:55:41.389Z,22.60
2022-07-25T12:58:09.143Z,22.40
2022-07-25T13:00:42.118Z,22.40
2022-07-25T13:03:09.045Z,22.40
2022-07-25T13:05:36.328Z,22.70
2022-07-25T13:08:07.033Z,23.10
2022-07-25T13:11:00.721Z,23.40
2022-07-25T13:13:27.650Z,23.70
2022-07-25T13:15:54.620Z,23.90
2022-07-25T13:18:21.886Z,24.00
2022-07-25T13:20:49.139Z,24.20
2022-07-25T13:23:20.548Z,24.20
2022-07-25T13:25:47.891Z,24.20
2022-07-25T13:28:15.026Z,24.50
2022-07-25T13:30:44.800Z,25.00
2022-07-25T13:33:11.792Z,26.10
2022-07-25T13:35:39.778Z,27.40
2022-07-25T13:38:10.119Z,28.20
2022-07-25T13:40:41.899Z,28.80
2022-07-25T13:43:10.066Z,29.70
2022-07-25T13:45:37.458Z,30.50
2022-07-25T13:48:28.310Z,31.00
2022-07-25T13:50:52.448Z,31.30
2022-07-25T13:53:19.409Z,31.30
2022-07-25T13:55:46.403Z,31.10
2022-07-25T13:58:13.393Z,30.90
2022-07-25T14:01:07.283Z,31.20
2022-07-25T14:03:36.267Z,31.70
2022-07-25T14:06:04.781Z,32.20
2022-07-25T14:08:31.828Z,32.80
2022-07-25T14:11:00.705Z,33.30
2022-07-25T14:13:27.717Z,33.20
2022-07-25T14:15:55.719Z,32.80
2022-07-25T14:18:22.721Z,32.40
2022-07-25T14:20:51.689Z,32.40
2022-07-25T14:23:18.627Z,32.40
2022-07-25T14:25:45.593Z,32.00
2022-07-25T14:28:12.540Z,31.50
2022-07-25T14:31:00.018Z,30.90
2022-07-25T14:33:27.299Z,30.10
2022-07-25T14:35:54.258Z,29.40
2022-07-25T14:38:24.384Z,29.00
2022-07-25T14:40:53.952Z,28.70
2022-07-25T14:43:20.829Z,28.50
2022-07-25T14:45:47.902Z,28.30
2022-07-25T14:48:14.842Z,28.20
2022-07-25T14:50:41.993Z,28.40
2022-07-25T14:53:08.934Z,28.50
2022-07-25T14:55:37.525Z,28.70
2022-07-25T14:58:04.725Z,28.80
2022-07-25T15:00:33.716Z,28.90
2022-07-25T15:03:01.643Z,28.90
2022-07-25T15:05:28.633Z,28.90
2022-07-25T15:07:55.579Z,28.90
2022-07-25T15:11:04.405Z,29.00
2022-07-25T15:13:32.442Z,28.90
2022-07-25T15:16:00.524Z,28.70
2022-07-25T15:18:28.025Z,28.50
2022-07-25T15:20:55.455Z,28.40
2022-07-25T15:23:25.273Z,28.10
2022-07-25T15:26:03.725Z,28.00
2022-07-25T15:28:36.352Z,27.80
2022-07-25T15:31:42.215Z,27.70
2022-07-25T15:34:09.222Z,27.70
2022-07-25T15:36:36.423Z,27.70
2022-07-25T15:39:03.818Z,27.70
2022-07-25T15:41:32.154Z,27.70
2022-07-25T15:43:59.802Z,27.70
2022-07-25T15:46:27.220Z,27.50
2022-07-25T15:48:54.352Z,27.30
2022-07-25T15:51:26.050Z,27.10
2022-07-25T15:53:52.992Z,26.70
2022-07-25T15:56:20.078Z,26.60
2022-07-25T15:58:50.053Z,26.60
2022-07-25T16:01:19.309Z,26.50
2022-07-25T16:03:46.502Z,26.60
2022-07-25T16:06:18.683Z,26.60
2022-07-25T16:08:46.614Z,26.70
2022-07-25T16:11:24.023Z,26.70
2022-07-25T16:13:51.050Z,26.60
2022-07-25T16:16:18.129Z,26.50
2022-07-25T16:18:45.211Z,26.60
2022-07-25T16:21:17.122Z,26.70
2022-07-25T16:23:45.759Z,26.90
2022-07-25T16:26:13.773Z,27.10
2022-07-25T16:28:43.145Z,27.10
2022-07-25T16:31:35.739Z,27.30
2022-07-25T16:34:03.027Z,27.30
2022-07-25T16:36:30.088Z,27.40
2022-07-25T16:39:00.160Z,27.30
2022-07-25T16:41:52.890Z,27.10
2022-07-25T16:44:20.036Z,27.10
2022-07-25T16:46:47.040Z,27.10
2022-07-25T16:49:16.779Z,27.00
2022-07-25T16:51:45.126Z,26.90
2022-07-25T16:54:12.472Z,26.90
2022-07-25T16:56:39.881Z,26.70
2022-07-25T16:59:08.177Z,26.60
2022-07-25T17:01:35.770Z,26.50
2022-07-25T17:04:03.409Z,26.30
2022-07-25T17:06:30.564Z,26.10
2022-07-25T17:08:58.633Z,25.80
2022-07-25T17:11:27.288Z,25.60
2022-07-25T17:13:54.245Z,25.50
2022-07-25T17:16:21.256Z,25.60
2022-07-25T17:18:48.375Z,25.60
2022-07-25T17:21:18.331Z,25.60
2022-07-25T17:23:45.461Z,25.60
2022-07-25T17:26:12.499Z,25.60
2022-07-25T17:28:40.152Z,25.70
2022-07-25T17:31:08.261Z,25.70
2022-07-25T17:33:35.370Z,25.70
2022-07-25T17:36:02.356Z,25.70
2022-07-25T17:38:34.662Z,25.70
2022-07-25T17:41:40.959Z,25.70
2022-07-25T17:44:11.993Z,25.50
2022-07-25T17:46:39.740Z,25.40
2022-07-25T17:49:06.929Z,25.30
2022-07-25T17:51:33.919Z,25.30
2022-07-25T17:54:00.869Z,25.10
2022-07-25T17:56:27.828Z,25.10
2022-07-25T17:58:55.192Z,25.00
2022-07-25T18:01:24.632Z,25.00
2022-07-25T18:03:51.634Z,24.90
2022-07-25T18:06:18.750Z,24.80
2022-07-25T18:11:28.319Z,24.70
2022-07-25T18:13:55.266Z,24.60
2022-07-25T18:16:22.797Z,24.30
2022-07-25T18:18:49.865Z,24.20
2022-07-25T18:21:16.993Z,24.10
2022-07-25T18:23:43.997Z,24.10
2022-07-25T18:26:11.266Z,24.10
2022-07-25T18:28:38.393Z,24.10
2022-07-25T18:31:06.941Z,24.00
2022-07-25T18:33:33.972Z,24.00
2022-07-25T18:36:06.948Z,24.00
2022-07-25T18:38:35.545Z,23.90
2022-07-25T18:41:27.541Z,23.90
2022-07-25T18:43:51.691Z,23.80
2022-07-25T18:46:19.449Z,23.80
2022-07-25T18:48:47.701Z,23.80
2022-07-25T18:51:16.781Z,23.80
2022-07-25T18:53:47.699Z,23.70
2022-07-25T18:56:15.980Z,23.70
2022-07-25T18:58:43.921Z,23.70
2022-07-25T19:01:11.210Z,23.60
2022-07-25T19:03:38.528Z,23.70
2022-07-25T19:06:07.951Z,23.60
2022-07-25T19:08:35.178Z,23.50
2022-07-25T19:11:37.637Z,23.50
2022-07-25T19:14:09.194Z,23.50
2022-07-25T19:16:36.599Z,23.40
2022-07-25T19:19:03.953Z,23.40
2022-07-25T19:21:36.317Z,23.40
2022-07-25T19:24:03.691Z,23.40
2022-07-25T19:26:31.964Z,23.40
2022-07-25T19:28:58.985Z,23.30
2022-07-25T19:31:29.687Z,23.30
2022-07-25T19:33:56.667Z,23.30
2022-07-25T19:36:23.564Z,23.30
2022-07-25T19:38:50.479Z,23.30
2022-07-25T19:41:18.651Z,23.20
2022-07-25T19:43:45.846Z,23.20
2022-07-25T19:46:13.043Z,23.20
2022-07-25T19:48:42.786Z,23.10
2022-07-25T19:51:10.622Z,23.10
2022-07-25T19:53:37.934Z,23.10
2022-07-25T19:56:06.617Z,23.00
2022-07-25T19:58:38.422Z,23.00
2022-07-25T20:01:07.820Z,23.00
2022-07-25T20:03:35.645Z,23.00
2022-07-25T20:06:07.870Z,22.90
2022-07-25T20:08:36.322Z,22.90
2022-07-25T20:11:03.472Z,22.80
2022-07-25T20:13:30.479Z,22.70
2022-07-25T20:15:58.605Z,22.70
2022-07-25T20:18:25.732Z,22.50
2022-07-25T20:20:53.278Z,22.50
2022-07-25T20:23:20.207Z,22.40
2022-07-25T20:25:47.168Z,22.30
2022-07-25T20:28:14.342Z,22.30
2022-07-25T20:30:42.000Z,22.20
2022-07-25T20:33:09.913Z,22.10
2022-07-25T20:35:38.161Z,22.00
2022-07-25T20:38:09.289Z,21.90
2022-07-25T20:40:48.239Z,21.90
2022-07-25T20:43:20.427Z,21.80
2022-07-25T20:45:47.764Z,21.90
2022-07-25T20:48:14.886Z,21.90
2022-07-25T20:50:45.458Z,21.90
2022-07-25T20:53:12.777Z,21.90
2022-07-25T20:55:39.713Z,21.90
2022-07-25T20:58:07.061Z,22.00
2022-07-25T21:00:53.123Z,22.00
2022-07-25T21:03:20.145Z,22.00
2022-07-25T21:05:47.159Z,22.10
2022-07-25T21:08:24.014Z,22.10
2022-07-25T21:10:51.055Z,22.00
2022-07-25T21:13:18.536Z,22.00
2022-07-25T21:15:45.593Z,22.00
2022-07-25T21:18:12.657Z,21.90
2022-07-25T21:20:39.833Z,21.90
2022-07-25T21:23:07.005Z,21.90
2022-07-25T21:25:33.939Z,21.90
2022-07-25T21:28:00.977Z,21.90
2022-07-25T21:30:29.009Z,21.90
2022-07-25T21:32:56.155Z,21.90
2022-07-25T21:35:23.211Z,21.80
2022-07-25T21:37:50.326Z,21.80
2022-07-25T21:40:18.514Z,21.80
2022-07-25T21:42:45.481Z,21.70
2022-07-25T21:45:12.579Z,21.70
2022-07-25T21:47:39.586Z,21.70
2022-07-25T21:50:25.792Z,21.60
2022-07-25T21:52:53.747Z,21.60
2022-07-25T21:55:21.601Z,21.60
2022-07-25T21:57:49.053Z,21.50
2022-07-25T22:00:16.595Z,21.50
2022-07-25T22:02:45.367Z,21.50
2022-07-25T22:05:13.722Z,21.40
2022-07-25T22:07:41.490Z,21.40
2022-07-25T22:10:11.184Z,21.30
2022-07-25T22:12:39.728Z,21.30
2022-07-25T22:15:08.342Z,21.30
2022-07-25T22:17:49.270Z,21.20
2022-07-25T22:20:20.345Z,21.20
2022-07-25T22:22:48.033Z,21.20
2022-07-25T22:25:16.238Z,21.20
2022-07-25T22:27:45.820Z,21.20
2022-07-25T22:30:18.680Z,21.20
2022-07-25T22:32:48.076Z,21.20
2022-07-25T22:35:15.253Z,21.20
2022-07-25T22:37:45.045Z,21.20
2022-07-25T22:40:31.180Z,21.10
2022-07-25T22:42:58.083Z,21.10
2022-07-25T22:45:25.056Z,21.10
2022-07-25T22:47:52.122Z,21.10
2022-07-25T22:50:19.234Z,21.10
2022-07-25T22:52:46.313Z,21.00
2022-07-25T22:55:13.321Z,21.00
2022-07-25T22:57:40.550Z,20.90
2022-07-25T23:00:13.292Z,20.90
2022-07-25T23:02:40.706Z,20.80
2022-07-25T23:05:09.121Z,20.80
2022-07-25T23:07:36.078Z,20.70
2022-07-25T23:10:06.011Z,20.60
2022-07-25T23:12:33.000Z,20.60
2022-07-25T23:15:00.073Z,20.60
2022-07-25T23:17:27.108Z,20.50
2022-07-25T23:19:55.900Z,20.50
2022-07-25T23:22:25.119Z,20.40
2022-07-25T23:24:52.306Z,20.40
2022-07-25T23:27:19.550Z,20.30
2022-07-25T23:29:47.831Z,20.30
2022-07-25T23:32:14.820Z,20.20
2022-07-25T23:34:41.830Z,20.20
2022-07-25T23:37:08.929Z,20.10
2022-07-25T23:40:15.174Z,20.10
2022-07-25T23:42:42.267Z,19.90
2022-07-25T23:45:10.105Z,19.90
2022-07-25T23:47:39.550Z,19.80
2022-07-25T23:50:09.618Z,19.70
2022-07-25T23:52:36.519Z,19.60
2022-07-25T23:55:04.222Z,19.50
2022-07-25T23:57:31.074Z,19.50
2022-07-25T23:59:58.403Z,19.40
